Aviation Digital Data Service (ADDS)

Output produced by METARs form (1153 UTC 23 July 2014)
found at http://www.aviationweather.gov/adds/metars/
 
KSEG 231053Z AUTO 00000KT 4SM BR CLR 22/21 A3000 RMK AO2 SLP155 T02220206
KSEG 230953Z AUTO 00000KT 5SM BR CLR 21/19 A2998 RMK AO2 SLP150 T02060194
KSEG 230853Z AUTO 00000KT 5SM BR CLR 21/20 A2997 RMK AO2 SLP146 T02110200 57019
KSEG 230753Z AUTO 20003KT 6SM BR CLR 22/20 A2999 RMK AO2 SLP153 T02170200
KSEG 230653Z AUTO 00000KT 7SM CLR 22/21 A3001 RMK AO2 SLP158 T02170206
KSEG 230553Z AUTO 00000KT 7SM CLR 22/21 A3003 RMK AO2 SLP165 T02220206 10278 20222 56007
KSEG 230453Z AUTO 22004KT 9SM CLR 24/21 A3003 RMK AO2 SLP166 T02390211 403000183
KSEG 230353Z AUTO 20004KT 9SM CLR 24/21 A3004 RMK AO2 SLP169 T02390211
KSEG 230253Z AUTO 21003KT 10SM CLR 24/21 A3005 RMK AO2 SLP173 T02390211 58002
KSEG 230153Z AUTO 00000KT 10SM FEW100 24/21 A3006 RMK AO2 SLP176 T02440211
KSEG 230053Z AUTO 18004KT 10SM CLR 26/21 A3005 RMK AO2 SLP173 T02610206
KSEG 222353Z AUTO 19004KT 10SM BKN100 28/21 A3006 RMK AO2 SLP175 T02780211 10300 20278 55002
KSEG 222253Z AUTO 18007KT 10SM CLR 29/21 A3006 RMK AO2 SLP175 T02890211
KSEG 222153Z AUTO VRB06KT 10SM CLR 29/21 A3006 RMK AO2 SLP176 T02940211
KSEG 222053Z AUTO 21009KT 10SM CLR 29/21 A3007 RMK AO2 SLP177 T02940206 58023
KSEG 221953Z AUTO 17006KT 10SM CLR 29/21 A3009 RMK AO2 SLP185 T02940211
KSEG 221853Z AUTO 17007KT 10SM FEW029 SCT039 29/22 A3012 RMK AO2 SLP195 T02890217
KSEG 221813Z AUTO VRB05KT 10SM SCT026 OVC039 28/21 A3013 RMK AO2 T02780211
KSEG 221753Z AUTO VRB05KT 10SM BKN026 OVC037 28/22 A3014 RMK AO2 SLP201 T02780222 10278 20211 56009
KSEG 221749Z AUTO VRB04KT 10SM BKN027 OVC037 27/21 A3013 RMK AO2
KSEG 221706Z AUTO 17007KT 10SM SCT025 OVC032 27/21 A3015 RMK AO2 T02720211
KSEG 221653Z AUTO VRB04KT 10SM BKN027 OVC032 26/21 A3015 RMK AO2 SLP207 T02610206
KSEG 221553Z AUTO 21003KT 10SM OVC027 27/21 A3016 RMK AO2 SLP210 T02670211
KSEG 221453Z AUTO 17003KT 9SM OVC022 26/21 A3017 RMK AO2 SLP213 T02560206 58007
KSEG 221353Z AUTO 17004KT 9SM OVC020 24/20 A3018 RMK AO2 SLP218 T02390200
KSEG 221253Z AUTO 00000KT 8SM OVC020 23/19 A3019 RMK AO2 SLP220 T02280194
KSEG 221153Z AUTO 00000KT 3SM BR OVC021 21/20 A3019 RMK AO2 SLP220 T02110200 10211 20183 53007
KSEG 221124Z AUTO 00000KT 2 1/2SM BR BKN021 BKN110 20/19 A3019 RMK AO2 T02000189
KSEG 221053Z AUTO 00000KT 2SM BR FEW021 19/18 A3018 RMK AO2 SLP217 T01890183
KSEG 221008Z AUTO 00000KT 1 1/2SM BR FEW021 FEW110 18/17 A3018 RMK AO2 T01830172
KSEG 220953Z AUTO 00000KT 2 1/2SM BR SCT021 18/18 A3018 RMK AO2 SLP216 T01830178
KSEG 220927Z AUTO 00000KT 2 1/2SM BR BKN042 19/18 A3018 RMK AO2 T01890183
KSEG 220853Z AUTO 00000KT 3SM BR OVC041 19/19 A3017 RMK AO2 SLP214 T01940189 52002
KSEG 220848Z AUTO 00000KT 3SM BR OVC041 19/19 A3017 RMK AO2
KSEG 220753Z AUTO 00000KT 2 1/2SM BR OVC040 19/18 A3017 RMK AO2 SLP211 T01940183
KSEG 220750Z AUTO 00000KT 2 1/2SM BR OVC040 19/18 A3017 RMK AO2
KSEG 220733Z AUTO 00000KT 3SM BR FEW002 OVC040 19/18 A3016 RMK AO2 T01890183
KSEG 220710Z AUTO 00000KT 2 1/2SM BR FEW002 SCT040 18/18 A3016 RMK AO2 T01830178
KSEG 220653Z AUTO 00000KT 4SM BR BKN040 19/18 A3016 RMK AO2 SLP211 T01890178 TSNO
KSEG 220602Z AUTO 00000KT 4SM BR OVC040 19/18 A3017 RMK AO2 T01890178
KSEG 220553Z AUTO 00000KT 2 1/2SM BR BKN040 19/18 A3017 RMK AO2 SLP214 T01890178 10244 20183 50000
KSEG 220541Z AUTO 00000KT 3SM BR BKN040 18/18 A3017 RMK AO2 T01830178
KSEG 220512Z AUTO 00000KT 3SM BR FEW041 18/18 A3018 RMK AO2 T01830178
KSEG 220453Z AUTO 00000KT 2 1/2SM BR CLR 19/18 A3018 RMK AO2 SLP217 T01890178 402670172
KSEG 220353Z AUTO 00000KT 4SM BR CLR 19/18 A3017 RMK AO2 SLP214 T01890183
KSEG 220253Z AUTO 00000KT 5SM BR CLR 20/19 A3017 RMK AO2 SLP214 T02000189 50004
KSEG 220153Z AUTO 00000KT 5SM BR CLR 20/19 A3017 RMK AO2 SLP215 T02000189
KSEG 220053Z AUTO 20003KT 10SM CLR 22/19 A3016 RMK AO2 SLP209 T02220194